Terminal Aerodrome Forecast
Issued by NWS Tulsa, OK

Home | Current Version | Previous Version | Text Only | Print | Product List | Glossary On
Versions: 1 2 3 4 5 6 7 8 9 10 11 12
000
FTUS44 KTSA 302300
TAFFSM
TAF
KFSM 302327Z 3100/3124 06007KT P6SM SKC
     FM310700 06003KT 5SM BR OVC012
     FM311000 06003KT 4SM BR OVC006
     FM311500 13004KT P6SM BKN015
     FM311700 21004KT P6SM SCT030=

USA.gov is the U.S. government's official web portal to all federal, state and local government web resources and services.